Time;durP1;ratioP1;P1;durP2;ratioP2;P2;SDS_P1;SDS_P2;PMS_P1;PMS_P2;Temp;Humidity;BMP_temperature;BMP_pressure;BME280_temperature;BME280_humidity;BME280_pressure;Samples;Min_cycle;Max_cycle;Signal;HPM_P1;HPM_P2
2021/04/23 00:01:24;;;;;;;11.83;5.50;;;7.30;99.90;;;;;;6195719;23;20550;-70
2021/04/23 00:03:59;;;;;;;7.13;5.13;;;7.30;99.90;;;;;;6170213;23;20351;-70
2021/04/23 00:06:35;;;;;;;9.40;5.33;;;7.30;99.90;;;;;;6197389;22;20211;-64
2021/04/23 00:09:22;;;;;;;20.77;5.53;;;7.30;99.90;;;;;;6227486;23;20562;-64
2021/04/23 00:11:50;;;;;;;10.30;6.30;;;7.20;99.90;;;;;;6172610;23;20602;-64
2021/04/23 00:14:18;;;;;;;8.33;5.73;;;7.20;99.90;;;;;;6198723;23;20718;-65
2021/04/23 00:16:44;;;;;;;8.20;5.77;;;7.20;99.90;;;;;;6200928;23;21016;-65
2021/04/23 00:19:13;;;;;;;12.13;6.43;;;7.20;99.90;;;;;;6170219;23;20967;-65
2021/04/23 00:21:40;;;;;;;13.23;5.20;;;7.20;99.90;;;;;;6196287;23;20556;-64
2021/04/23 00:24:07;;;;;;;14.50;6.20;;;7.20;99.90;;;;;;6198940;23;20639;-66
2021/04/23 00:26:35;;;;;;;11.03;5.33;;;7.20;99.90;;;;;;6203337;23;21088;-64
2021/04/23 00:29:01;;;;;;;10.27;5.60;;;7.10;99.90;;;;;;6172652;23;20556;-64
2021/04/23 00:31:26;;;;;;;9.27;5.20;;;7.10;99.90;;;;;;6197161;23;20635;-64
2021/04/23 00:33:52;;;;;;;8.97;5.53;;;7.10;99.90;;;;;;6199454;23;20176;-64
2021/04/23 00:36:18;;;;;;;11.27;5.97;;;7.10;99.90;;;;;;6200948;23;20152;-64
2021/04/23 00:38:44;;;;;;;16.43;5.67;;;7.10;99.90;;;;;;6201113;23;20160;-64
2021/04/23 00:41:13;;;;;;;11.30;6.23;;;7.10;99.90;;;;;;6170953;23;20205;-65
2021/04/23 00:43:42;;;;;;;8.23;5.17;;;7.10;99.90;;;;;;6196136;23;20153;-64
2021/04/23 00:46:09;;;;;;;14.43;6.30;;;7.20;99.90;;;;;;6197405;23;20543;-65
2021/04/23 00:48:41;;;;;;;9.37;5.87;;;7.10;99.90;;;;;;6200897;23;20540;-65
2021/04/23 00:51:15;;;;;;;10.37;4.93;;;7.10;99.90;;;;;;6172097;23;21135;-65
2021/04/23 00:53:43;;;;;;;10.63;5.87;;;7.20;99.90;;;;;;6201444;23;21086;-66
2021/04/23 00:56:14;;;;;;;10.63;5.30;;;7.10;99.90;;;;;;6173481;23;20530;-64
2021/04/23 00:58:40;;;;;;;12.73;5.90;;;7.10;99.90;;;;;;6195363;23;20489;-65
2021/04/23 01:01:16;;;;;;;10.43;5.93;;;7.00;99.90;;;;;;6197642;23;20624;-66
2021/04/23 01:03:42;;;;;;;10.67;4.87;;;7.00;99.90;;;;;;6173212;23;20157;-66
2021/04/23 01:06:13;;;;;;;14.03;6.37;;;7.00;99.90;;;;;;6203659;23;20535;-65
2021/04/23 01:08:39;;;;;;;8.80;5.10;;;7.00;99.90;;;;;;6167943;23;20161;-67
2021/04/23 01:11:08;;;;;;;9.40;5.40;;;7.00;99.90;;;;;;6198460;23;21096;-65
2021/04/23 01:13:34;;;;;;;9.60;5.47;;;7.10;99.90;;;;;;6198237;23;20576;-65
2021/04/23 01:16:12;;;;;;;12.23;6.50;;;7.10;99.90;;;;;;6170624;23;20559;-65
2021/04/23 01:18:39;;;;;;;10.87;5.50;;;7.00;99.90;;;;;;6199211;23;20513;-66
2021/04/23 01:21:09;;;;;;;9.70;6.40;;;7.10;99.90;;;;;;6199813;23;20650;-65
2021/04/23 01:23:37;;;;;;;10.90;5.80;;;7.20;99.90;;;;;;6199271;23;20544;-66
2021/04/23 01:26:04;;;;;;;9.30;6.17;;;7.20;99.90;;;;;;6199356;23;20536;-65
2021/04/23 01:28:30;;;;;;;10.03;4.87;;;7.10;99.90;;;;;;6199561;23;20540;-65
2021/04/23 01:31:03;;;;;;;10.67;5.03;;;7.00;99.90;;;;;;6169009;23;20592;-65
2021/04/23 01:33:29;;;;;;;8.60;5.90;;;7.00;99.90;;;;;;6202119;23;20210;-66
2021/04/23 01:35:55;;;;;;;8.90;5.30;;;7.10;99.90;;;;;;6201218;23;20576;-66
2021/04/23 01:38:23;;;;;;;11.40;5.60;;;7.00;99.90;;;;;;6171252;23;20189;-65
2021/04/23 01:40:50;;;;;;;8.90;5.30;;;7.00;99.90;;;;;;6196402;23;21480;-66
2021/04/23 01:43:21;;;;;;;13.80;5.80;;;7.00;99.90;;;;;;6197851;23;20551;-66
2021/04/23 01:45:48;;;;;;;10.90;5.37;;;6.90;99.90;;;;;;6200852;23;20563;-65
2021/04/23 01:48:15;;;;;;;8.10;4.60;;;7.00;99.90;;;;;;6174381;23;20658;-66
2021/04/23 01:50:41;;;;;;;9.73;5.00;;;7.00;99.90;;;;;;6199131;23;20586;-65
2021/04/23 01:53:07;;;;;;;8.93;5.23;;;7.00;99.90;;;;;;6168383;23;20587;-65
2021/04/23 01:55:33;;;;;;;14.00;5.13;;;7.00;99.90;;;;;;6195179;23;20206;-66
2021/04/23 01:57:59;;;;;;;12.90;5.47;;;7.10;99.90;;;;;;6197258;23;20539;-65
2021/04/23 02:00:29;;;;;;;9.90;5.13;;;7.00;99.90;;;;;;6200508;23;20654;-66
2021/04/23 02:02:59;;;;;;;12.97;5.20;;;6.90;99.90;;;;;;6198207;23;20498;-65
2021/04/23 02:05:25;;;;;;;11.17;4.77;;;6.80;99.90;;;;;;6200632;23;20496;-65
2021/04/23 02:07:51;;;;;;;8.90;5.60;;;6.90;99.90;;;;;;6174276;23;20597;-66
2021/04/23 02:10:22;;;;;;;12.37;5.53;;;6.90;99.90;;;;;;6192570;23;20602;-66
2021/04/23 02:12:48;;;;;;;10.97;5.00;;;6.80;99.90;;;;;;6197235;23;20547;-66
2021/04/23 02:15:15;;;;;;;12.10;5.70;;;6.80;99.90;;;;;;6200108;23;20536;-66
2021/04/23 02:17:42;;;;;;;9.30;4.63;;;6.80;99.90;;;;;;6196960;23;20159;-66
2021/04/23 02:20:17;;;;;;;8.93;4.77;;;6.80;99.90;;;;;;6199985;23;20615;-65
2021/04/23 02:22:45;;;;;;;9.90;5.03;;;6.80;99.90;;;;;;6170696;23;20563;-65
2021/04/23 02:25:13;;;;;;;10.13;4.20;;;6.70;99.90;;;;;;6171732;23;20563;-65
2021/04/23 02:27:40;;;;;;;8.50;4.33;;;6.80;99.90;;;;;;6199816;23;20538;-65
2021/04/23 02:30:17;;;;;;;10.67;5.13;;;6.80;99.90;;;;;;6171873;23;20607;-66
2021/04/23 02:32:42;;;;;;;7.23;4.30;;;6.80;99.90;;;;;;6197654;23;20554;-65
2021/04/23 02:35:10;;;;;;;12.43;5.17;;;6.80;99.90;;;;;;6201849;23;20528;-66
2021/04/23 02:37:37;;;;;;;9.20;4.47;;;6.80;99.90;;;;;;6197779;23;20164;-65
2021/04/23 02:40:05;;;;;;;7.43;3.97;;;6.80;99.90;;;;;;6197690;23;20674;-65
2021/04/23 02:42:31;;;;;;;10.83;4.33;;;6.80;99.90;;;;;;6197382;23;20607;-66
2021/04/23 02:44:57;;;;;;;9.80;4.03;;;6.70;99.90;;;;;;6174980;23;20651;-66
2021/04/23 02:47:23;;;;;;;9.30;4.27;;;6.70;99.90;;;;;;6198946;23;20583;-65
2021/04/23 02:49:49;;;;;;;8.97;4.40;;;6.80;99.90;;;;;;6201853;23;20198;-66
2021/04/23 02:52:15;;;;;;;9.63;3.97;;;6.70;99.90;;;;;;6201217;23;21314;-64
2021/04/23 02:54:41;;;;;;;5.60;3.40;;;6.60;99.90;;;;;;6174339;23;20513;-64
2021/04/23 02:57:07;;;;;;;8.97;4.33;;;6.60;99.90;;;;;;6175379;23;20697;-63
2021/04/23 02:59:33;;;;;;;7.33;4.03;;;6.60;99.90;;;;;;6196783;23;20176;-64
2021/04/23 03:01:58;;;;;;;10.10;4.37;;;6.60;99.90;;;;;;6194907;23;20531;-65
2021/04/23 03:04:24;;;;;;;15.03;4.23;;;6.60;99.90;;;;;;6203973;23;20163;-65
2021/04/23 03:06:50;;;;;;;11.20;3.80;;;6.70;99.90;;;;;;6201562;23;20564;-65
2021/04/23 03:09:16;;;;;;;8.53;3.50;;;6.80;99.90;;;;;;6192030;23;20171;-65
2021/04/23 03:11:42;;;;;;;7.87;4.57;;;6.70;99.90;;;;;;6200106;23;20618;-64
2021/04/23 03:14:09;;;;;;;5.80;3.60;;;6.70;99.90;;;;;;6199830;23;20184;-65
2021/04/23 03:16:38;;;;;;;8.90;4.60;;;6.60;99.90;;;;;;6196189;23;20516;-66
2021/04/23 03:19:14;;;;;;;9.77;4.00;;;6.80;99.90;;;;;;6172557;23;20560;-66
2021/04/23 03:21:41;;;;;;;7.57;3.40;;;6.90;99.90;;;;;;6200683;23;20494;-64
2021/04/23 03:24:10;;;;;;;11.10;3.63;;;6.80;99.90;;;;;;6201602;23;20538;-65
2021/04/23 03:26:36;;;;;;;10.17;4.53;;;6.90;99.90;;;;;;6203066;23;20592;-65
2021/04/23 03:29:04;;;;;;;8.13;3.80;;;6.90;99.90;;;;;;6197768;23;20559;-65
2021/04/23 03:31:32;;;;;;;7.97;3.23;;;6.80;99.90;;;;;;6198777;23;20235;-64
2021/04/23 03:33:58;;;;;;;6.23;3.10;;;6.80;99.90;;;;;;6202357;23;20629;-64
2021/04/23 03:36:26;;;;;;;8.30;3.90;;;6.80;99.90;;;;;;6201995;23;20536;-64
2021/04/23 03:38:52;;;;;;;6.87;3.30;;;6.90;99.90;;;;;;6200915;23;20559;-64
2021/04/23 03:41:29;;;;;;;8.70;4.03;;;6.80;99.90;;;;;;6196210;23;20571;-64
2021/04/23 03:43:55;;;;;;;8.73;3.50;;;6.80;99.90;;;;;;6175721;23;20551;-65
2021/04/23 03:46:21;;;;;;;5.10;3.30;;;6.90;99.90;;;;;;6200426;23;20524;-66
2021/04/23 03:48:47;;;;;;;7.00;3.47;;;6.80;99.90;;;;;;6197206;23;20914;-66
2021/04/23 03:51:14;;;;;;;7.67;3.47;;;6.90;99.90;;;;;;6196204;23;21058;-65
2021/04/23 03:53:40;;;;;;;9.73;3.40;;;6.90;99.90;;;;;;6199680;23;20579;-66
2021/04/23 03:56:07;;;;;;;7.20;3.63;;;7.00;99.90;;;;;;6200806;23;20567;-65
2021/04/23 03:58:33;;;;;;;8.10;3.30;;;7.00;99.90;;;;;;6200050;23;21123;-64
2021/04/23 04:01:06;;;;;;;9.27;3.10;;;7.00;99.90;;;;;;6199805;23;20558;-65
2021/04/23 04:03:32;;;;;;;8.50;3.40;;;7.00;99.90;;;;;;6198241;23;20781;-68
2021/04/23 04:05:58;;;;;;;9.93;4.90;;;7.00;99.90;;;;;;6202536;23;20650;-66
2021/04/23 04:08:24;;;;;;;7.97;3.40;;;7.00;99.90;;;;;;6175793;23;20229;-66
2021/04/23 04:10:50;;;;;;;6.23;3.80;;;7.10;99.90;;;;;;6202019;23;20482;-64
2021/04/23 04:13:17;;;;;;;5.97;3.23;;;7.20;99.90;;;;;;6197535;23;20734;-64
2021/04/23 04:15:43;;;;;;;9.73;3.80;;;7.20;99.90;;;;;;6198486;23;20527;-65
2021/04/23 04:18:11;;;;;;;6.43;3.00;;;7.10;99.90;;;;;;6194633;23;20562;-64
2021/04/23 04:20:40;;;;;;;5.47;3.40;;;7.10;99.90;;;;;;6175987;23;20583;-65
2021/04/23 04:23:08;;;;;;;7.53;3.20;;;7.00;99.90;;;;;;6196650;23;20539;-65
2021/04/23 04:25:38;;;;;;;9.87;3.67;;;7.00;99.90;;;;;;6176678;23;20640;-65
2021/04/23 04:28:04;;;;;;;6.47;3.70;;;7.00;99.90;;;;;;6175386;23;20591;-64
2021/04/23 04:30:33;;;;;;;5.60;2.97;;;7.00;99.90;;;;;;6172304;23;20743;-65
2021/04/23 04:32:59;;;;;;;5.70;4.30;;;7.30;99.90;;;;;;6200266;23;20575;-64
2021/04/23 04:35:29;;;;;;;11.93;3.83;;;7.30;99.90;;;;;;6200619;23;20536;-66
2021/04/23 04:37:56;;;;;;;10.50;3.47;;;7.20;99.90;;;;;;6200642;23;20547;-64
2021/04/23 04:40:23;;;;;;;6.93;3.40;;;7.20;99.90;;;;;;6173310;23;20610;-63
2021/04/23 04:42:49;;;;;;;9.60;3.07;;;7.20;99.90;;;;;;6177580;23;20658;-65
2021/04/23 04:45:18;;;;;;;5.37;2.87;;;7.20;99.90;;;;;;6201476;23;20563;-64
2021/04/23 04:47:44;;;;;;;7.00;3.10;;;7.10;99.90;;;;;;6197786;23;20156;-66
2021/04/23 04:50:13;;;;;;;11.00;3.63;;;7.20;99.90;;;;;;6201273;23;20555;-64
2021/04/23 04:52:39;;;;;;;11.57;3.70;;;7.10;99.90;;;;;;6198415;23;20587;-66
2021/04/23 04:55:07;;;;;;;8.27;3.73;;;7.10;99.90;;;;;;6198345;23;20550;-64
2021/04/23 04:57:34;;;;;;;8.13;2.93;;;7.10;99.90;;;;;;6201148;23;20152;-64
2021/04/23 05:00:00;;;;;;;5.30;3.00;;;7.20;99.90;;;;;;6171261;23;20587;-65
2021/04/23 05:02:26;;;;;;;9.63;3.20;;;6.90;99.90;;;;;;6197958;23;20580;-65
2021/04/23 05:04:51;;;;;;;13.13;3.20;;;7.20;99.90;;;;;;6199999;23;21053;-65
2021/04/23 05:07:17;;;;;;;8.37;2.80;;;7.20;99.90;;;;;;6195528;23;20179;-64
2021/04/23 05:09:42;;;;;;;8.77;2.70;;;7.20;99.90;;;;;;6167420;23;20176;-65
2021/04/23 05:12:08;;;;;;;7.00;3.10;;;7.20;99.90;;;;;;6195723;23;20186;-64
2021/04/23 05:14:33;;;;;;;11.03;3.33;;;7.10;99.90;;;;;;6172343;23;20657;-65
2021/04/23 05:16:59;;;;;;;10.53;3.00;;;7.10;99.90;;;;;;6173212;23;20411;-65
2021/04/23 05:19:25;;;;;;;9.00;2.63;;;7.10;99.90;;;;;;6303243;22;20296;-65
2021/04/23 05:21:50;;;;;;;9.40;3.10;;;7.20;99.90;;;;;;6194969;23;20156;-65
2021/04/23 05:24:16;;;;;;;9.70;2.60;;;7.20;99.90;;;;;;6198793;23;20160;-65
2021/04/23 05:26:42;;;;;;;8.23;3.20;;;7.20;99.90;;;;;;6197644;23;20157;-67
2021/04/23 05:29:07;;;;;;;6.63;2.67;;;7.20;99.90;;;;;;6189681;23;20158;-64
2021/04/23 05:31:34;;;;;;;7.30;3.10;;;7.40;99.90;;;;;;6185168;23;20152;-64
2021/04/23 05:34:00;;;;;;;10.73;3.40;;;7.30;99.90;;;;;;6191003;23;21181;-66
2021/04/23 05:36:28;;;;;;;6.43;2.73;;;7.40;99.90;;;;;;6153468;23;20664;-65
2021/04/23 05:38:53;;;;;;;9.50;3.00;;;7.40;99.90;;;;;;6194137;23;21087;-65
2021/04/23 05:41:21;;;;;;;10.60;2.90;;;7.30;99.90;;;;;;6188504;23;20591;-65
2021/04/23 05:43:48;;;;;;;11.13;3.57;;;7.30;99.90;;;;;;6187881;23;20164;-65
2021/04/23 05:46:17;;;;;;;6.30;2.63;;;7.40;99.90;;;;;;6180750;23;21162;-65
2021/04/23 05:48:43;;;;;;;8.53;3.30;;;7.40;99.90;;;;;;6185296;23;20624;-65
2021/04/23 05:51:09;;;;;;;6.13;3.13;;;7.50;99.90;;;;;;6195475;23;20583;-65
2021/04/23 05:53:37;;;;;;;8.10;3.30;;;7.50;99.90;;;;;;6188829;23;20583;-65
2021/04/23 05:56:02;;;;;;;8.00;4.07;;;7.40;99.90;;;;;;6198369;23;20149;-64
2021/04/23 05:58:30;;;;;;;7.17;2.73;;;7.40;99.90;;;;;;6199299;23;20588;-65
2021/04/23 06:00:56;;;;;;;11.80;3.60;;;7.40;99.90;;;;;;6193302;23;20177;-65
2021/04/23 06:03:21;;;;;;;6.00;2.80;;;7.50;99.90;;;;;;6189941;23;20539;-65
2021/04/23 06:05:47;;;;;;;11.13;3.03;;;7.40;99.90;;;;;;6185446;23;20313;-66
2021/04/23 06:08:13;;;;;;;13.13;4.33;;;7.60;99.90;;;;;;6255929;22;20243;-62
2021/04/23 06:10:42;;;;;;;10.63;3.37;;;7.60;99.90;;;;;;6204204;23;20168;-61
2021/04/23 06:13:10;;;;;;;12.40;3.50;;;7.60;99.90;;;;;;6194733;22;21181;-60
2021/04/23 06:15:36;;;;;;;10.70;3.33;;;7.50;99.90;;;;;;6298176;22;20567;-60
2021/04/23 06:18:05;;;;;;;8.63;3.90;;;7.60;99.90;;;;;;6201901;22;20614;-60
2021/04/23 06:20:32;;;;;;;7.40;2.60;;;7.60;99.90;;;;;;6199890;23;20578;-60
2021/04/23 06:23:00;;;;;;;9.53;3.27;;;7.60;99.90;;;;;;6303607;22;20945;-60
2021/04/23 06:25:28;;;;;;;10.27;3.40;;;7.70;99.90;;;;;;6193031;22;20574;-61
2021/04/23 06:27:57;;;;;;;12.10;3.13;;;7.60;99.90;;;;;;6201987;22;20926;-60
2021/04/23 06:30:28;;;;;;;9.20;2.87;;;7.70;99.90;;;;;;6199284;23;20563;-61
2021/04/23 06:32:56;;;;;;;9.63;2.90;;;7.70;99.90;;;;;;6197269;22;20612;-61
2021/04/23 06:35:24;;;;;;;8.37;3.27;;;7.70;99.90;;;;;;6197722;22;20531;-61
2021/04/23 06:37:50;;;;;;;9.47;3.20;;;7.70;99.90;;;;;;6292915;22;21124;-61
2021/04/23 06:40:19;;;;;;;10.80;3.27;;;7.80;99.90;;;;;;6198696;23;20619;-61
2021/04/23 06:42:45;;;;;;;9.80;4.23;;;7.80;99.90;;;;;;6193855;23;20453;-61
2021/04/23 06:45:16;;;;;;;7.07;3.53;;;7.80;99.90;;;;;;6302329;22;21092;-61
2021/04/23 06:47:45;;;;;;;9.60;3.47;;;7.90;99.90;;;;;;6301843;22;20568;-61
2021/04/23 06:50:14;;;;;;;10.87;3.67;;;8.00;99.90;;;;;;6200982;23;20589;-61
2021/04/23 06:52:41;;;;;;;8.40;3.00;;;8.00;99.90;;;;;;6300239;22;20603;-62
2021/04/23 06:55:11;;;;;;;13.10;3.60;;;8.00;99.90;;;;;;6303741;22;20567;-63
2021/04/23 06:57:37;;;;;;;15.73;3.70;;;8.10;99.90;;;;;;6200640;22;20956;-62
2021/04/23 07:00:10;;;;;;;9.33;3.57;;;8.10;99.90;;;;;;6193862;23;20931;-62
2021/04/23 07:02:36;;;;;;;9.53;5.23;;;8.20;99.90;;;;;;6290287;22;20172;-60
2021/04/23 07:05:02;;;;;;;8.70;3.20;;;8.30;99.90;;;;;;6188633;23;20882;-60
2021/04/23 07:07:27;;;;;;;9.33;3.87;;;8.30;99.90;;;;;;6297700;22;20184;-60
2021/04/23 07:09:53;;;;;;;11.03;3.13;;;8.40;99.90;;;;;;6192579;23;20942;-60
2021/04/23 07:12:18;;;;;;;8.20;3.37;;;8.40;99.90;;;;;;6289926;22;20187;-60
2021/04/23 07:14:44;;;;;;;9.67;3.57;;;8.40;99.90;;;;;;6187695;23;20496;-60
2021/04/23 07:17:11;;;;;;;11.13;3.60;;;8.50;99.90;;;;;;6300935;22;20168;-60
2021/04/23 07:19:40;;;;;;;9.23;3.30;;;8.50;99.90;;;;;;6324415;22;20233;-62
2021/04/23 07:22:06;;;;;;;7.67;2.87;;;8.50;99.90;;;;;;6194407;23;20651;-60
2021/04/23 07:24:35;;;;;;;10.87;3.60;;;8.50;99.90;;;;;;6198813;22;20877;-60
2021/04/23 07:27:01;;;;;;;8.73;3.10;;;8.60;99.90;;;;;;6193384;22;20855;-58
2021/04/23 07:29:27;;;;;;;8.60;3.13;;;8.60;99.90;;;;;;6322844;22;20602;-61
2021/04/23 07:31:52;;;;;;;8.53;3.10;;;8.70;99.90;;;;;;6192704;22;20180;-60
2021/04/23 07:34:18;;;;;;;6.30;2.80;;;8.70;99.90;;;;;;6297486;22;20938;-59
2021/04/23 07:36:43;;;;;;;11.33;3.70;;;8.70;99.90;;;;;;6329677;22;20212;-59
2021/04/23 07:39:10;;;;;;;10.60;3.17;;;8.70;99.90;;;;;;6194855;23;20625;-59
2021/04/23 07:41:38;;;;;;;8.83;3.27;;;8.80;99.90;;;;;;6324851;22;20660;-59
2021/04/23 07:44:05;;;;;;;11.33;3.50;;;8.80;99.90;;;;;;6202291;22;20552;-61
2021/04/23 07:46:31;;;;;;;10.23;3.27;;;8.90;99.90;;;;;;6201222;22;20874;-61
2021/04/23 07:48:56;;;;;;;9.93;3.00;;;9.00;99.90;;;;;;6306240;22;20556;-59
2021/04/23 07:51:22;;;;;;;10.37;4.13;;;9.00;99.90;;;;;;6199937;23;20620;-59
2021/04/23 07:53:48;;;;;;;7.63;2.90;;;9.20;99.90;;;;;;6202016;23;20542;-60
2021/04/23 07:56:13;;;;;;;7.70;3.07;;;9.30;99.90;;;;;;6204263;23;20462;-59
2021/04/23 07:58:39;;;;;;;10.60;3.90;;;9.30;99.90;;;;;;6329935;22;20171;-59
2021/04/23 08:01:07;;;;;;;9.00;3.57;;;9.40;99.90;;;;;;6201165;23;20516;-62
2021/04/23 08:03:33;;;;;;;8.23;3.00;;;9.40;99.90;;;;;;6332629;22;20254;-60
2021/04/23 08:05:59;;;;;;;8.33;3.23;;;9.50;99.90;;;;;;6199981;23;20627;-62
2021/04/23 08:08:25;;;;;;;9.40;3.47;;;9.50;99.90;;;;;;6206216;22;20450;-60
2021/04/23 08:10:51;;;;;;;7.23;2.87;;;9.60;99.90;;;;;;6202855;22;20958;-60
2021/04/23 08:13:19;;;;;;;6.33;2.80;;;9.60;99.90;;;;;;6200534;22;20602;-62
2021/04/23 08:15:47;;;;;;;7.93;2.77;;;9.60;99.90;;;;;;6300818;22;20662;-62
2021/04/23 08:18:13;;;;;;;5.67;3.40;;;9.70;99.90;;;;;;6200503;22;20570;-62
2021/04/23 08:20:39;;;;;;;10.57;3.23;;;9.70;99.90;;;;;;6200635;23;20575;-62
2021/04/23 08:23:05;;;;;;;8.63;2.90;;;9.70;99.90;;;;;;6201750;23;20203;-62
2021/04/23 08:25:33;;;;;;;9.53;3.27;;;9.80;99.90;;;;;;6303181;22;20161;-62
2021/04/23 08:27:58;;;;;;;4.33;3.03;;;9.90;99.90;;;;;;6200439;22;20567;-62
2021/04/23 08:30:28;;;;;;;9.10;3.03;;;10.00;99.90;;;;;;6199283;23;20941;-62
2021/04/23 08:32:56;;;;;;;9.93;3.50;;;10.10;99.90;;;;;;6195827;22;20511;-62
2021/04/23 08:35:22;;;;;;;5.40;3.00;;;10.20;99.90;;;;;;6304602;22;20559;-62
2021/04/23 08:37:48;;;;;;;6.53;2.80;;;10.30;99.90;;;;;;6301482;22;20563;-62
2021/04/23 08:40:16;;;;;;;8.60;3.00;;;10.30;99.90;;;;;;6199601;22;20566;-60
2021/04/23 08:42:42;;;;;;;8.33;4.10;;;10.20;99.90;;;;;;6200705;22;20527;-60
2021/04/23 08:45:13;;;;;;;8.87;3.20;;;10.30;99.90;;;;;;6198717;22;20552;-61
2021/04/23 08:47:43;;;;;;;6.37;3.33;;;10.40;99.90;;;;;;6201268;22;21062;-60
2021/04/23 08:50:11;;;;;;;12.30;3.60;;;10.40;99.90;;;;;;6302455;22;20603;-60
2021/04/23 08:52:39;;;;;;;5.80;2.60;;;10.50;99.90;;;;;;6303208;22;20937;-60
2021/04/23 08:55:08;;;;;;;6.13;2.90;;;10.70;99.90;;;;;;6200149;22;20591;-60
2021/04/23 08:57:36;;;;;;;5.63;3.70;;;10.60;99.90;;;;;;6198179;22;20579;-62
2021/04/23 09:00:05;;;;;;;8.97;3.63;;;10.70;99.90;;;;;;6199657;22;20603;-62
2021/04/23 09:02:31;;;;;;;7.60;3.20;;;10.70;99.90;;;;;;6300713;22;20572;-61
2021/04/23 09:04:58;;;;;;;8.53;3.97;;;10.70;99.90;;;;;;6196868;23;20721;-62
2021/04/23 09:07:24;;;;;;;7.00;2.83;;;10.70;99.90;;;;;;6303901;22;20309;-62
2021/04/23 09:09:50;;;;;;;7.67;2.97;;;10.80;99.90;;;;;;6302253;22;20621;-62
2021/04/23 09:12:26;;;;;;;8.07;2.63;;;10.70;99.90;;;;;;6326866;22;20619;-62
2021/04/23 09:14:53;;;;;;;7.70;2.57;;;10.70;99.90;;;;;;6198505;22;20231;-62
2021/04/23 09:17:24;;;;;;;7.87;2.97;;;10.80;99.90;;;;;;6305322;22;20566;-62
2021/04/23 09:19:54;;;;;;;5.93;2.63;;;10.90;99.90;;;;;;6196066;22;20567;-63
2021/04/23 09:22:29;;;;;;;10.50;3.30;;;11.10;99.90;;;;;;6196530;22;20585;-62
2021/04/23 09:25:04;;;;;;;6.43;3.03;;;11.10;99.90;;;;;;6195679;22;20532;-63
2021/04/23 09:27:36;;;;;;;7.13;3.33;;;11.20;99.90;;;;;;6301295;22;20555;-61
2021/04/23 09:30:07;;;;;;;7.03;3.37;;;11.20;99.90;;;;;;6197584;22;20571;-61
2021/04/23 09:32:41;;;;;;;6.93;3.10;;;11.30;99.90;;;;;;6300254;22;20648;-61
2021/04/23 09:35:18;;;;;;;8.60;2.97;;;11.30;99.90;;;;;;6302506;22;21096;-60
2021/04/23 09:37:43;;;;;;;5.40;2.73;;;11.30;99.90;;;;;;6194240;22;20619;-60
2021/04/23 09:40:18;;;;;;;8.27;3.60;;;11.40;99.90;;;;;;6296711;22;20674;-61
2021/04/23 09:42:46;;;;;;;7.20;3.17;;;11.50;99.90;;;;;;6195564;22;20646;-59
2021/04/23 09:45:15;;;;;;;9.70;3.20;;;11.50;99.90;;;;;;6194596;22;21120;-61
2021/04/23 09:47:41;;;;;;;6.60;2.90;;;11.50;99.90;;;;;;6302013;22;20895;-61
2021/04/23 09:50:08;;;;;;;7.33;2.63;;;11.50;99.90;;;;;;6196438;22;20587;-60
2021/04/23 09:52:51;;;;;;;5.60;3.10;;;11.60;99.90;;;;;;6199262;22;20965;-61
2021/04/23 09:55:22;;;;;;;9.83;3.57;;;11.60;99.90;;;;;;6196164;22;20561;-60
2021/04/23 09:57:52;;;;;;;6.80;3.30;;;11.60;99.90;;;;;;6198128;22;20555;-59
2021/04/23 10:00:20;;;;;;;6.53;2.90;;;11.60;99.90;;;;;;6272678;22;20576;-62
2021/04/23 10:02:50;;;;;;;8.23;2.70;;;11.60;99.90;;;;;;6299628;22;21006;-64
2021/04/23 10:05:27;;;;;;;6.27;2.97;;;11.80;99.90;;;;;;6192744;22;20524;-61
2021/04/23 10:07:52;;;;;;;4.83;2.73;;;11.90;99.90;;;;;;6304372;22;20581;-61
2021/04/23 10:10:18;;;;;;;5.03;2.77;;;11.90;99.90;;;;;;6328897;22;20599;-61
2021/04/23 10:12:53;;;;;;;6.73;2.90;;;11.90;99.90;;;;;;6198861;23;20181;-61
2021/04/23 10:15:23;;;;;;;7.70;3.33;;;12.00;99.90;;;;;;6304333;22;20163;-60
2021/04/23 10:17:53;;;;;;;8.73;3.03;;;11.90;99.90;;;;;;6198888;22;20640;-63
2021/04/23 10:20:29;;;;;;;10.50;3.10;;;12.10;99.90;;;;;;6304665;22;20653;-61
2021/04/23 10:22:56;;;;;;;8.63;3.30;;;12.20;99.90;;;;;;6201980;22;20912;-59
2021/04/23 10:25:22;;;;;;;9.73;3.40;;;12.20;99.90;;;;;;6299401;22;20605;-60
2021/04/23 10:27:49;;;;;;;4.73;2.70;;;12.20;99.90;;;;;;6307643;22;20942;-62
2021/04/23 10:30:30;;;;;;;5.03;2.57;;;12.20;99.90;;;;;;6200421;22;20585;-59
2021/04/23 10:32:58;;;;;;;4.90;2.60;;;12.20;99.90;;;;;;6304246;22;20599;-60
2021/04/23 10:35:25;;;;;;;7.30;2.97;;;12.30;99.90;;;;;;6197845;22;20544;-61
2021/04/23 10:37:52;;;;;;;5.87;2.43;;;12.30;99.90;;;;;;6201079;23;20523;-61
2021/04/23 10:40:21;;;;;;;6.00;2.80;;;12.40;99.90;;;;;;6195313;22;20916;-61
2021/04/23 10:42:56;;;;;;;6.03;2.90;;;12.60;99.90;;;;;;6305298;22;20893;-61
2021/04/23 10:45:26;;;;;;;5.87;2.90;;;12.60;99.90;;;;;;6305737;22;20546;-59
2021/04/23 10:47:55;;;;;;;8.07;2.97;;;12.80;99.90;;;;;;6200786;22;20532;-61
2021/04/23 10:50:27;;;;;;;3.80;2.43;;;12.80;99.90;;;;;;6299599;22;20591;-62
2021/04/23 10:52:56;;;;;;;5.10;2.90;;;12.90;99.90;;;;;;6200769;22;20603;-60
2021/04/23 10:55:38;;;;;;;4.87;2.97;;;12.90;99.90;;;;;;6307021;22;20563;-61
2021/04/23 10:58:04;;;;;;;8.50;2.63;;;12.90;99.90;;;;;;6198688;22;20522;-61
2021/04/23 11:00:42;;;;;;;9.30;3.80;;;13.00;99.90;;;;;;6198609;22;20654;-60
2021/04/23 11:03:23;;;;;;;7.00;3.00;;;13.00;99.90;;;;;;6201004;22;20858;-60
2021/04/23 11:05:50;;;;;;;7.83;2.90;;;13.10;99.90;;;;;;6304517;22;20559;-61
2021/04/23 11:08:16;;;;;;;5.43;2.90;;;13.10;99.90;;;;;;6198696;22;20566;-61
2021/04/23 11:11:05;;;;;;;6.60;2.50;;;13.10;99.90;;;;;;6303565;22;20599;-61
2021/04/23 11:13:35;;;;;;;6.30;2.80;;;13.10;99.90;;;;;;6203971;22;20505;-61
2021/04/23 11:16:25;;;;;;;4.00;2.37;;;13.20;99.90;;;;;;6305756;22;20568;-61
2021/04/23 11:18:58;;;;;;;5.90;3.10;;;13.30;99.90;;;;;;6201489;22;20524;-60
2021/04/23 11:21:44;;;;;;;5.53;3.00;;;13.50;99.90;;;;;;6305755;22;20967;-61
2021/04/23 11:24:10;;;;;;;5.90;2.73;;;13.60;99.90;;;;;;6310620;22;20548;-61
2021/04/23 11:29:41;;;;;;;8.20;3.80;;;13.80;99.90;;;;;;6198747;23;20176;-61
2021/04/23 11:32:10;;;;;;;6.67;2.70;;;13.80;99.90;;;;;;6201363;22;20888;-61
2021/04/23 11:34:38;;;;;;;7.77;3.10;;;13.70;99.90;;;;;;6203510;23;20528;-61
2021/04/23 11:37:13;;;;;;;7.50;3.50;;;13.60;99.90;;;;;;6305118;22;20555;-62
2021/04/23 11:39:43;;;;;;;5.87;2.70;;;13.80;99.90;;;;;;6200441;22;21115;-61
2021/04/23 11:42:16;;;;;;;9.03;3.03;;;13.80;99.90;;;;;;6198752;22;20528;-62
2021/04/23 11:44:52;;;;;;;9.60;3.40;;;13.80;99.90;;;;;;6303926;22;21089;-62
2021/04/23 11:47:42;;;;;;;8.77;3.40;;;13.90;99.90;;;;;;6307189;22;20620;-61
2021/04/23 11:50:25;;;;;;;5.83;2.80;;;13.90;99.90;;;;;;6308500;22;21105;-61
2021/04/23 11:52:58;;;;;;;9.60;3.13;;;14.10;99.90;;;;;;6201266;22;20937;-63
2021/04/23 11:55:27;;;;;;;7.40;2.90;;;14.10;99.90;;;;;;6201033;22;20891;-61
2021/04/23 11:58:07;;;;;;;8.83;3.23;;;14.10;99.90;;;;;;6306610;22;21233;-60
2021/04/23 12:00:34;;;;;;;7.60;3.03;;;14.20;99.90;;;;;;6202660;22;20568;-61
2021/04/23 12:03:07;;;;;;;9.90;2.90;;;14.20;99.90;;;;;;6201341;22;20590;-61
2021/04/23 12:05:41;;;;;;;9.07;3.17;;;14.30;99.90;;;;;;6201343;22;20599;-60
2021/04/23 12:08:13;;;;;;;8.97;3.30;;;14.40;99.90;;;;;;6194614;23;20710;-68
2021/04/23 12:10:43;;;;;;;4.70;2.70;;;14.50;99.90;;;;;;6200682;23;20611;-70
2021/04/23 12:13:17;;;;;;;7.30;2.90;;;14.60;99.90;;;;;;6164829;23;20614;-67
2021/04/23 12:15:46;;;;;;;4.70;2.80;;;14.80;99.90;;;;;;6188471;23;20504;-71
2021/04/23 12:18:13;;;;;;;6.87;2.83;;;14.90;99.90;;;;;;6189673;23;20520;-71
2021/04/23 12:20:51;;;;;;;5.10;3.00;;;14.80;99.90;;;;;;6193194;23;21319;-71
2021/04/23 12:23:24;;;;;;;10.10;3.37;;;14.70;99.90;;;;;;6191652;23;20508;-71
2021/04/23 12:25:57;;;;;;;7.83;3.23;;;14.80;99.90;;;;;;6191808;23;21046;-70
2021/04/23 12:28:35;;;;;;;5.60;2.63;;;15.10;99.90;;;;;;6190949;23;20824;-71
2021/04/23 12:31:04;;;;;;;4.80;3.10;;;15.30;99.90;;;;;;6167020;23;20595;-71
2021/04/23 12:33:51;;;;;;;7.93;3.13;;;15.40;99.90;;;;;;6187479;23;20583;-71
2021/04/23 12:36:39;;;;;;;6.87;2.80;;;15.30;99.90;;;;;;6163600;23;20635;-71
2021/04/23 12:39:07;;;;;;;6.10;2.83;;;15.30;99.90;;;;;;6195621;23;20500;-71
2021/04/23 12:41:35;;;;;;;8.10;3.20;;;14.90;99.90;;;;;;6196997;23;20528;-71
2021/04/23 12:44:05;;;;;;;9.00;2.97;;;14.80;99.90;;;;;;6171151;23;21036;-71
2021/04/23 12:46:39;;;;;;;4.93;2.70;;;14.90;99.90;;;;;;6199827;23;20595;-71
2021/04/23 12:49:16;;;;;;;5.87;2.80;;;14.90;99.90;;;;;;6175131;23;20606;-71
2021/04/23 12:52:04;;;;;;;10.70;3.00;;;14.90;99.90;;;;;;6201601;23;21011;-71
2021/04/23 12:54:37;;;;;;;6.30;2.63;;;15.10;99.90;;;;;;6199091;23;20573;-71
2021/04/23 12:57:14;;;;;;;4.63;2.67;;;15.30;99.90;;;;;;6172371;23;20563;-71
2021/04/23 12:59:44;;;;;;;7.03;2.77;;;15.20;99.90;;;;;;6199289;23;20605;-71
2021/04/23 13:02:22;;;;;;;7.13;2.90;;;15.20;99.90;;;;;;6197520;23;20954;-71